Time;durP1;ratioP1;P1;durP2;ratioP2;P2;SDS_P1;SDS_P2;PMS_P1;PMS_P2;Temp;Humidity;BMP_temperature;BMP_pressure;BME280_temperature;BME280_humidity;BME280_pressure;Samples;Min_cycle;Max_cycle;Signal;HPM_P1;HPM_P2
2022/02/25 00:00:36;;;;;;;2.15;1.30;;;5.50;1.00;;;;;;5036250;28;20235;-80
2022/02/25 00:03:04;;;;;;;2.10;1.67;;;5.50;1.00;;;;;;5035730;28;20261;-78
2022/02/25 00:05:31;;;;;;;2.60;1.40;;;5.50;1.00;;;;;;5020108;28;20360;-80
2022/02/25 00:07:58;;;;;;;2.10;1.20;;;5.40;1.00;;;;;;5022548;28;20226;-80
2022/02/25 00:10:26;;;;;;;2.15;1.75;;;5.30;1.00;;;;;;5026012;28;20350;-81
2022/02/25 00:12:53;;;;;;;2.80;1.90;;;5.20;1.00;;;;;;5025167;28;20258;-79
2022/02/25 00:15:20;;;;;;;1.92;1.42;;;5.20;1.00;;;;;;5024142;28;20290;-79
2022/02/25 00:17:47;;;;;;;4.38;1.17;;;5.10;1.00;;;;;;5026440;28;20235;-78
2022/02/25 00:20:15;;;;;;;3.15;1.05;;;5.00;1.00;;;;;;5014288;28;20222;-80
2022/02/25 00:22:42;;;;;;;4.55;1.95;;;5.10;1.00;;;;;;5014481;28;20717;-81
2022/02/25 00:25:11;;;;;;;2.28;1.38;;;5.00;1.00;;;;;;5021279;28;20268;-80
2022/02/25 00:27:40;;;;;;;2.72;1.40;;;5.10;1.00;;;;;;5024613;28;20215;-81
2022/02/25 00:30:09;;;;;;;3.15;1.75;;;5.00;1.00;;;;;;5025128;28;20257;-78
2022/02/25 00:32:37;;;;;;;2.10;1.40;;;5.00;1.00;;;;;;5021895;28;20234;-81
2022/02/25 00:35:04;;;;;;;2.40;1.50;;;5.00;1.00;;;;;;5021252;28;20278;-79
2022/02/25 00:37:31;;;;;;;2.70;1.50;;;5.10;1.00;;;;;;5039435;28;20226;-80
2022/02/25 00:39:58;;;;;;;2.67;1.35;;;5.10;1.00;;;;;;5041910;28;20237;-81
2022/02/25 00:42:25;;;;;;;3.25;1.35;;;5.20;1.00;;;;;;5016468;28;20226;-82
2022/02/25 00:44:53;;;;;;;2.03;1.02;;;5.20;1.00;;;;;;5018606;28;20226;-80
2022/02/25 00:47:20;;;;;;;4.57;2.00;;;5.20;1.00;;;;;;5033963;28;20223;-81
2022/02/25 00:49:47;;;;;;;3.40;1.30;;;5.20;1.00;;;;;;5031278;28;20223;-81
2022/02/25 00:52:13;;;;;;;4.30;1.55;;;5.30;1.00;;;;;;5020791;28;20232;-81
2022/02/25 00:54:40;;;;;;;2.90;1.67;;;5.30;1.00;;;;;;5017658;28;20230;-82
2022/02/25 00:57:07;;;;;;;3.35;1.58;;;5.20;1.00;;;;;;5021069;28;20226;-81
2022/02/25 00:59:34;;;;;;;2.75;1.52;;;5.20;1.00;;;;;;5019384;28;20225;-81
2022/02/25 01:02:01;;;;;;;2.80;1.25;;;5.20;1.00;;;;;;5020473;28;20222;-79
2022/02/25 01:04:28;;;;;;;3.10;1.70;;;5.20;1.00;;;;;;5019944;28;21618;-81
2022/02/25 01:06:55;;;;;;;2.13;1.45;;;5.20;1.00;;;;;;5018394;28;20230;-81
2022/02/25 01:09:23;;;;;;;2.40;1.27;;;5.20;1.00;;;;;;5019429;28;20234;-81
2022/02/25 01:11:50;;;;;;;3.15;1.30;;;5.20;1.00;;;;;;5022581;28;20218;-82
2022/02/25 01:14:16;;;;;;;2.15;1.10;;;5.10;1.00;;;;;;5040834;28;20342;-81
2022/02/25 01:16:47;;;;;;;2.42;1.92;;;5.00;1.00;;;;;;5044430;28;20238;-80
2022/02/25 01:19:16;;;;;;;3.70;1.45;;;4.90;1.00;;;;;;5019513;28;20238;-79
2022/02/25 01:21:43;;;;;;;3.00;1.45;;;4.90;1.00;;;;;;5013816;28;20243;-81
2022/02/25 01:24:09;;;;;;;4.60;2.25;;;4.90;1.00;;;;;;5018964;28;20225;-80
2022/02/25 01:26:36;;;;;;;4.28;1.30;;;4.90;1.00;;;;;;5024888;28;20292;-80
2022/02/25 01:29:03;;;;;;;2.35;1.30;;;4.90;1.00;;;;;;5014129;28;20237;-80
2022/02/25 01:31:30;;;;;;;1.90;1.20;;;4.80;1.00;;;;;;5021495;28;20222;-81
2022/02/25 01:33:56;;;;;;;2.85;1.73;;;4.80;1.00;;;;;;5021859;28;20235;-81
2022/02/25 01:36:24;;;;;;;4.43;1.35;;;4.80;1.00;;;;;;5013753;28;20234;-81
2022/02/25 01:38:51;;;;;;;2.17;1.33;;;4.80;1.00;;;;;;5024756;28;20248;-80
2022/02/25 01:41:17;;;;;;;3.53;1.70;;;4.70;1.00;;;;;;5017266;28;20939;-81
2022/02/25 01:43:44;;;;;;;4.38;1.20;;;4.70;1.00;;;;;;5014567;28;20226;-80
2022/02/25 01:46:12;;;;;;;3.88;1.70;;;4.80;1.00;;;;;;5012600;28;20317;-81
2022/02/25 01:48:39;;;;;;;2.22;1.33;;;4.90;1.00;;;;;;5015440;28;20229;-82
2022/02/25 01:51:06;;;;;;;2.35;1.60;;;4.90;1.00;;;;;;5022817;28;20222;-80
2022/02/25 01:53:34;;;;;;;4.78;1.60;;;4.90;1.00;;;;;;5015781;28;20234;-80
2022/02/25 01:56:00;;;;;;;2.40;1.42;;;5.00;1.00;;;;;;5009694;28;20237;-81
2022/02/25 01:58:28;;;;;;;4.55;1.58;;;5.00;1.00;;;;;;5010147;28;20218;-80
2022/02/25 02:00:56;;;;;;;2.20;1.60;;;5.10;1.00;;;;;;5012409;28;20246;-79
2022/02/25 02:03:23;;;;;;;2.85;1.67;;;5.10;1.00;;;;;;5016364;28;20223;-79
2022/02/25 02:05:50;;;;;;;3.25;2.08;;;5.10;1.00;;;;;;5023592;28;20230;-80
2022/02/25 02:08:16;;;;;;;5.00;1.75;;;5.10;1.00;;;;;;5020459;28;20227;-78
2022/02/25 02:10:44;;;;;;;6.22;1.90;;;5.00;1.00;;;;;;5032379;28;20214;-78
2022/02/25 02:13:13;;;;;;;3.25;1.88;;;5.00;1.00;;;;;;5022251;28;20223;-81
2022/02/25 02:15:39;;;;;;;3.92;1.90;;;5.00;1.00;;;;;;5018414;28;20241;-81
2022/02/25 02:18:06;;;;;;;8.38;2.15;;;5.10;1.00;;;;;;5016917;28;20293;-80
2022/02/25 02:20:32;;;;;;;4.85;3.00;;;5.10;1.00;;;;;;5017378;28;20235;-81
2022/02/25 02:23:00;;;;;;;3.08;1.80;;;5.10;1.00;;;;;;5009975;28;20223;-80
2022/02/25 02:25:27;;;;;;;5.70;2.20;;;5.10;1.00;;;;;;5013595;28;20723;-81
2022/02/25 02:30:40;;;;;;;3.00;1.58;;;5.10;1.00;;;;;;5013928;28;20258;-80
2022/02/25 02:33:07;;;;;;;4.65;2.05;;;5.00;1.00;;;;;;5012845;28;20226;-80
2022/02/25 02:35:34;;;;;;;3.63;2.10;;;5.00;1.00;;;;;;5017316;28;20745;-80
2022/02/25 02:38:02;;;;;;;3.80;2.30;;;4.90;1.00;;;;;;5013513;28;20219;-80
2022/02/25 02:40:29;;;;;;;2.70;1.70;;;4.80;1.00;;;;;;5010176;28;20308;-80
2022/02/25 02:42:55;;;;;;;8.68;2.47;;;4.80;1.00;;;;;;5016657;28;20793;-80
2022/02/25 02:45:22;;;;;;;2.65;1.98;;;4.70;1.00;;;;;;5011982;28;20246;-81
2022/02/25 02:47:49;;;;;;;7.00;2.30;;;4.70;1.00;;;;;;5018374;28;20448;-81
2022/02/25 02:50:16;;;;;;;5.50;2.05;;;4.60;1.00;;;;;;5020336;28;20326;-80
2022/02/25 02:52:42;;;;;;;5.40;2.00;;;4.60;1.00;;;;;;5022711;28;20219;-82
2022/02/25 02:55:10;;;;;;;5.60;2.45;;;4.60;1.00;;;;;;5017640;28;20378;-79
2022/02/25 02:57:37;;;;;;;5.85;2.10;;;4.50;1.00;;;;;;5013325;28;21422;-81
2022/02/25 03:00:05;;;;;;;7.25;2.15;;;4.50;1.00;;;;;;5011327;28;20968;-80
2022/02/25 03:02:32;;;;;;;3.40;2.10;;;4.50;1.00;;;;;;5021982;28;20222;-80
2022/02/25 03:04:59;;;;;;;5.35;2.00;;;4.40;1.00;;;;;;5026617;28;20226;-80
2022/02/25 03:07:25;;;;;;;4.55;2.58;;;4.30;1.00;;;;;;5035704;28;20211;-80
2022/02/25 03:09:52;;;;;;;3.92;2.40;;;4.30;1.00;;;;;;5049709;28;20214;-80
2022/02/25 03:12:20;;;;;;;4.82;2.10;;;4.30;1.00;;;;;;5043198;28;20233;-79
2022/02/25 03:14:47;;;;;;;8.40;2.33;;;4.30;1.00;;;;;;5038970;28;20270;-79
2022/02/25 03:17:14;;;;;;;4.40;2.45;;;4.20;1.00;;;;;;5042494;28;20279;-78
2022/02/25 03:19:41;;;;;;;5.40;2.22;;;4.20;1.00;;;;;;5025107;28;20226;-78
2022/02/25 03:22:07;;;;;;;5.82;2.30;;;4.30;1.00;;;;;;5013821;28;20325;-80
2022/02/25 03:24:34;;;;;;;4.90;2.15;;;4.30;1.00;;;;;;5014668;28;20218;-81
2022/02/25 03:27:01;;;;;;;4.07;2.33;;;4.40;1.00;;;;;;5014708;28;20230;-81
2022/02/25 03:29:28;;;;;;;4.78;2.40;;;4.50;1.00;;;;;;5009936;28;20234;-81
2022/02/25 03:31:56;;;;;;;6.18;2.25;;;4.50;1.00;;;;;;5009761;28;20228;-80
2022/02/25 03:34:23;;;;;;;8.43;3.00;;;4.50;1.00;;;;;;5018172;28;20730;-81
2022/02/25 03:36:49;;;;;;;6.70;2.78;;;4.50;1.00;;;;;;5021515;28;20223;-78
2022/02/25 03:39:16;;;;;;;8.13;2.65;;;4.40;1.00;;;;;;5034266;28;20233;-79
2022/02/25 03:41:43;;;;;;;5.10;2.40;;;4.30;1.00;;;;;;5025889;28;20244;-80
2022/02/25 03:44:10;;;;;;;6.22;2.95;;;4.20;1.00;;;;;;5019549;28;20229;-80
2022/02/25 03:46:38;;;;;;;4.78;2.53;;;4.10;1.00;;;;;;5018684;28;21056;-80
2022/02/25 03:49:05;;;;;;;5.25;2.67;;;4.10;1.00;;;;;;5020204;28;20222;-81
2022/02/25 03:51:31;;;;;;;4.68;2.35;;;4.00;1.00;;;;;;5032872;28;20225;-80
2022/02/25 03:53:58;;;;;;;5.30;2.35;;;4.00;1.00;;;;;;5038032;28;20230;-80
2022/02/25 03:56:25;;;;;;;6.97;2.92;;;3.90;1.00;;;;;;5022455;28;20234;-81
2022/02/25 03:58:52;;;;;;;3.95;2.40;;;3.90;1.00;;;;;;5022377;28;20219;-79
2022/02/25 04:01:19;;;;;;;8.13;3.08;;;3.80;1.00;;;;;;5011226;28;20222;-81
2022/02/25 04:03:47;;;;;;;3.80;2.50;;;3.80;1.00;;;;;;5013794;28;20238;-81
2022/02/25 04:06:13;;;;;;;7.93;3.05;;;3.80;1.00;;;;;;5021133;28;20227;-79
2022/02/25 04:08:40;;;;;;;6.95;3.00;;;3.80;1.00;;;;;;5011021;28;20230;-78
2022/02/25 04:11:07;;;;;;;4.55;2.63;;;3.70;1.00;;;;;;5012293;28;20242;-79
2022/02/25 04:13:33;;;;;;;10.20;3.40;;;3.70;1.00;;;;;;5014408;28;20231;-80
2022/02/25 04:16:00;;;;;;;7.50;2.40;;;3.70;1.00;;;;;;5011587;28;20241;-79
2022/02/25 04:18:27;;;;;;;6.95;2.70;;;3.70;1.00;;;;;;5012104;28;20241;-79
2022/02/25 04:20:55;;;;;;;6.38;3.00;;;3.60;1.00;;;;;;5008443;28;20267;-79
2022/02/25 04:23:21;;;;;;;5.18;3.40;;;3.60;1.00;;;;;;5008282;28;20227;-80
2022/02/25 04:25:49;;;;;;;5.90;3.15;;;3.60;1.00;;;;;;5011368;28;20226;-79
2022/02/25 04:28:15;;;;;;;7.20;3.00;;;3.70;1.00;;;;;;5012890;28;20222;-80
2022/02/25 04:30:42;;;;;;;5.45;3.35;;;3.70;1.00;;;;;;5008438;28;20257;-80
2022/02/25 04:33:09;;;;;;;4.47;3.17;;;3.70;1.00;;;;;;5006302;28;20226;-78
2022/02/25 04:35:36;;;;;;;6.00;2.95;;;3.60;1.00;;;;;;5027585;28;20282;-78
2022/02/25 04:38:04;;;;;;;8.90;3.30;;;3.60;1.00;;;;;;5042976;28;20283;-77
2022/02/25 04:40:31;;;;;;;6.75;3.22;;;3.60;1.00;;;;;;5044206;28;20298;-77
2022/02/25 04:42:58;;;;;;;7.18;3.42;;;3.60;1.00;;;;;;5045943;28;20228;-79
2022/02/25 04:45:25;;;;;;;4.50;2.70;;;3.50;1.00;;;;;;5048938;28;20222;-77
2022/02/25 04:47:51;;;;;;;8.32;4.15;;;3.50;1.00;;;;;;5045629;28;20210;-79
2022/02/25 04:50:18;;;;;;;7.60;3.75;;;3.50;1.00;;;;;;5019777;28;20237;-80
2022/02/25 04:52:45;;;;;;;5.80;2.45;;;3.60;1.00;;;;;;5015374;28;20226;-80
2022/02/25 04:55:13;;;;;;;9.18;2.97;;;3.70;1.00;;;;;;5013505;28;20237;-80
2022/02/25 04:57:41;;;;;;;9.60;2.85;;;3.70;1.00;;;;;;5015298;28;20237;-80
2022/02/25 05:00:10;;;;;;;5.45;2.70;;;3.80;1.00;;;;;;5010445;28;20233;-77
2022/02/25 05:02:38;;;;;;;6.45;3.20;;;3.90;1.00;;;;;;5004580;28;20341;-80
2022/02/25 05:05:05;;;;;;;7.32;3.17;;;3.80;1.00;;;;;;5014443;28;20261;-79
2022/02/25 05:07:32;;;;;;;6.47;3.05;;;3.80;1.00;;;;;;5013541;28;20230;-80
2022/02/25 05:09:59;;;;;;;5.95;3.10;;;3.70;1.00;;;;;;5015759;28;20331;-79
2022/02/25 05:12:27;;;;;;;9.98;3.38;;;3.70;1.00;;;;;;5018406;28;20322;-79
2022/02/25 05:20:25;;;;;;;4.97;3.17;;;3.70;1.00;;;;;;5031506;28;20223;-81
2022/02/25 05:22:53;;;;;;;7.05;3.17;;;3.60;1.00;;;;;;5034182;28;20206;-80
2022/02/25 05:25:22;;;;;;;6.45;2.97;;;3.60;1.00;;;;;;5020800;28;20310;-82
2022/02/25 05:27:50;;;;;;;5.65;3.78;;;3.50;1.00;;;;;;5023103;28;20230;-83
2022/02/25 05:30:17;;;;;;;8.50;5.53;;;3.60;1.00;;;;;;5042473;28;20234;-83
2022/02/25 05:32:46;;;;;;;5.15;3.00;;;3.50;1.00;;;;;;5037775;28;20222;-81
2022/02/25 05:35:14;;;;;;;6.55;3.20;;;3.50;1.00;;;;;;5048247;28;20238;-80
2022/02/25 05:37:42;;;;;;;3.72;3.05;;;3.50;1.00;;;;;;5041541;28;20512;-78
2022/02/25 05:40:11;;;;;;;6.53;3.00;;;3.40;1.00;;;;;;5045913;28;20241;-78
2022/02/25 05:42:38;;;;;;;4.55;3.35;;;3.50;1.00;;;;;;5037639;28;20230;-78
2022/02/25 05:45:08;;;;;;;4.55;3.15;;;3.40;1.00;;;;;;5024922;28;20890;-80
2022/02/25 05:47:35;;;;;;;6.57;3.17;;;3.40;1.00;;;;;;5014476;28;23131;-80
2022/02/25 05:50:03;;;;;;;9.15;2.80;;;3.40;1.00;;;;;;5013253;28;20230;-80
2022/02/25 05:52:29;;;;;;;4.85;2.70;;;3.30;1.00;;;;;;5021875;28;20226;-80
2022/02/25 05:54:56;;;;;;;7.53;3.10;;;3.30;1.00;;;;;;5015649;28;20347;-82
2022/02/25 05:57:23;;;;;;;6.85;3.67;;;3.30;1.00;;;;;;5014074;28;20969;-80
2022/02/25 05:59:50;;;;;;;7.25;4.22;;;3.20;1.00;;;;;;5021207;28;20219;-79
2022/02/25 06:02:18;;;;;;;6.50;3.42;;;3.20;1.00;;;;;;5016694;28;20227;-80
2022/02/25 06:04:45;;;;;;;7.50;3.58;;;3.20;1.00;;;;;;5015359;28;20226;-80
2022/02/25 06:07:12;;;;;;;13.57;8.00;;;3.20;1.00;;;;;;5014652;28;20261;-78
2022/02/25 06:09:41;;;;;;;8.65;3.63;;;3.10;1.00;;;;;;5014638;28;20237;-82
2022/02/25 06:12:08;;;;;;;11.23;4.03;;;3.10;1.00;;;;;;5019064;28;20679;-81
2022/02/25 06:14:34;;;;;;;7.60;3.80;;;3.10;1.00;;;;;;5017808;28;20248;-81
2022/02/25 06:17:02;;;;;;;8.70;3.80;;;3.10;1.00;;;;;;5013712;28;20222;-81
2022/02/25 06:19:31;;;;;;;8.45;3.50;;;3.00;1.00;;;;;;5016386;28;20233;-81
2022/02/25 06:21:57;;;;;;;10.50;4.18;;;3.00;1.00;;;;;;5015133;28;20760;-83
2022/02/25 06:24:24;;;;;;;7.82;4.15;;;3.00;1.00;;;;;;5026419;28;20210;-85
2022/02/25 06:26:51;;;;;;;6.68;4.63;;;3.00;1.00;;;;;;5028069;28;20222;-79
2022/02/25 06:29:18;;;;;;;8.98;3.35;;;3.00;1.00;;;;;;5024785;28;20230;-79
2022/02/25 06:31:46;;;;;;;3.75;3.33;;;3.00;1.00;;;;;;5018609;28;20226;-80
2022/02/25 06:34:13;;;;;;;6.28;3.20;;;3.00;1.00;;;;;;5017999;28;20431;-81
2022/02/25 06:36:41;;;;;;;5.60;3.33;;;3.00;1.00;;;;;;5017281;28;20341;-80
2022/02/25 06:39:09;;;;;;;6.78;3.78;;;3.10;1.00;;;;;;5017643;28;20356;-80
2022/02/25 06:41:36;;;;;;;4.78;3.60;;;3.20;1.00;;;;;;5014456;28;21046;-82
2022/02/25 06:44:03;;;;;;;6.38;3.72;;;3.30;1.00;;;;;;5024967;28;20222;-81
2022/02/25 06:46:30;;;;;;;10.70;3.55;;;3.40;1.00;;;;;;5015442;28;20234;-81
2022/02/25 06:48:56;;;;;;;4.47;2.72;;;3.50;1.00;;;;;;5027180;28;20218;-80
2022/02/25 06:51:24;;;;;;;8.48;4.53;;;3.50;1.00;;;;;;5022110;28;20257;-82
2022/02/25 06:53:53;;;;;;;5.85;4.00;;;3.60;1.00;;;;;;5017974;28;20230;-80
2022/02/25 06:56:21;;;;;;;4.95;3.95;;;3.70;1.00;;;;;;5016379;28;20277;-81
2022/02/25 06:58:47;;;;;;;6.63;3.40;;;3.80;1.00;;;;;;5009673;28;20218;-81
2022/02/25 07:01:14;;;;;;;6.55;4.10;;;3.90;1.00;;;;;;5012129;28;20226;-84
2022/02/25 07:03:41;;;;;;;6.15;3.10;;;4.10;1.00;;;;;;5020633;28;20670;-84
2022/02/25 07:06:08;;;;;;;9.95;4.53;;;4.10;1.00;;;;;;5022346;28;20223;-82
2022/02/25 07:08:34;;;;;;;7.90;4.60;;;4.10;1.00;;;;;;5031829;28;20293;-81
2022/02/25 07:11:02;;;;;;;6.22;3.80;;;4.20;1.00;;;;;;5032855;28;20245;-83
2022/02/25 07:13:29;;;;;;;5.35;4.20;;;4.20;1.00;;;;;;5032874;28;20229;-82
2022/02/25 07:15:58;;;;;;;7.05;3.90;;;4.20;1.00;;;;;;5036683;28;20237;-83
2022/02/25 07:18:24;;;;;;;7.28;3.80;;;4.30;1.00;;;;;;5028754;28;20222;-84
2022/02/25 07:20:51;;;;;;;7.25;5.18;;;4.30;1.00;;;;;;5026613;28;20248;-83
2022/02/25 07:23:18;;;;;;;7.20;3.78;;;4.40;1.00;;;;;;5022279;28;20289;-83
2022/02/25 07:25:45;;;;;;;7.60;3.50;;;4.40;1.00;;;;;;5040106;28;21038;-85
2022/02/25 07:28:13;;;;;;;9.10;4.10;;;4.50;1.00;;;;;;5028091;28;21264;-85
2022/02/25 07:30:40;;;;;;;4.85;3.47;;;4.50;1.00;;;;;;5028380;28;20297;-83
2022/02/25 07:33:07;;;;;;;7.13;3.20;;;4.60;1.00;;;;;;5030319;28;20221;-84
2022/02/25 07:35:34;;;;;;;5.78;3.15;;;4.60;1.00;;;;;;5020327;28;20249;-83
2022/02/25 07:38:01;;;;;;;6.80;3.20;;;4.70;1.00;;;;;;5026053;28;20714;-82
2022/02/25 07:40:28;;;;;;;4.75;4.20;;;4.70;1.00;;;;;;5027141;28;20316;-81
2022/02/25 07:42:56;;;;;;;7.15;3.67;;;4.70;1.00;;;;;;5036650;28;20226;-81
2022/02/25 07:45:25;;;;;;;8.38;3.35;;;4.90;1.00;;;;;;5021628;28;20218;-79
2022/02/25 07:47:51;;;;;;;6.20;3.50;;;4.90;1.00;;;;;;5021773;28;20230;-81
2022/02/25 07:50:18;;;;;;;10.52;3.58;;;5.00;1.00;;;;;;5020158;28;20230;-79
2022/02/25 07:52:45;;;;;;;6.63;4.03;;;5.10;1.00;;;;;;5018891;28;20302;-81
2022/02/25 07:55:12;;;;;;;6.35;3.20;;;5.00;1.00;;;;;;5024142;28;20553;-79
2022/02/25 07:57:39;;;;;;;4.95;3.10;;;5.10;1.00;;;;;;5029217;28;20282;-80
2022/02/25 08:00:09;;;;;;;7.13;3.28;;;5.30;1.00;;;;;;5019791;28;20234;-81
2022/02/25 08:02:38;;;;;;;7.03;3.13;;;5.50;1.00;;;;;;5016003;28;20219;-79
2022/02/25 08:05:05;;;;;;;6.80;3.40;;;5.50;1.00;;;;;;5038068;28;20221;-79
2022/02/25 08:07:32;;;;;;;5.25;3.13;;;5.50;1.00;;;;;;5038479;28;20241;-79
2022/02/25 08:09:59;;;;;;;3.80;3.03;;;5.40;1.00;;;;;;5035532;28;20219;-79
2022/02/25 08:12:26;;;;;;;13.35;3.90;;;5.20;1.00;;;;;;5026455;28;20222;-81
2022/02/25 08:14:53;;;;;;;8.88;5.18;;;5.20;1.00;;;;;;5018063;28;20718;-80
2022/02/25 08:17:21;;;;;;;6.78;3.42;;;5.40;1.00;;;;;;5015430;28;20289;-79
2022/02/25 08:19:49;;;;;;;6.20;3.10;;;5.50;1.00;;;;;;5015020;28;20656;-80
2022/02/25 08:22:18;;;;;;;6.93;3.03;;;5.70;1.00;;;;;;5015101;28;20225;-79
2022/02/25 08:24:45;;;;;;;6.03;2.85;;;5.90;1.00;;;;;;5026525;28;20222;-79
2022/02/25 08:27:12;;;;;;;4.30;2.95;;;5.90;1.00;;;;;;5018162;28;20253;-80
2022/02/25 08:29:39;;;;;;;7.40;2.95;;;5.90;1.00;;;;;;5015160;28;20463;-80
2022/02/25 08:32:06;;;;;;;6.10;3.20;;;5.90;1.00;;;;;;5020290;28;20219;-79
2022/02/25 08:34:33;;;;;;;6.70;3.03;;;5.90;1.00;;;;;;5016299;28;20223;-80
2022/02/25 08:37:01;;;;;;;4.63;2.90;;;6.00;1.00;;;;;;5016352;28;21019;-80
2022/02/25 08:39:28;;;;;;;5.30;3.10;;;6.00;1.00;;;;;;5016612;28;20229;-80
2022/02/25 08:41:55;;;;;;;6.75;2.75;;;6.00;1.00;;;;;;5022115;28;20241;-79
2022/02/25 08:44:22;;;;;;;6.35;3.25;;;6.10;1.00;;;;;;5016555;28;20229;-81
2022/02/25 08:46:49;;;;;;;5.55;3.00;;;6.20;1.00;;;;;;5016853;28;20234;-81
2022/02/25 08:49:16;;;;;;;7.55;2.80;;;6.40;1.00;;;;;;5014883;28;20244;-78
2022/02/25 08:51:43;;;;;;;6.57;3.35;;;6.70;1.00;;;;;;5012299;28;20808;-80
2022/02/25 08:54:11;;;;;;;7.28;2.80;;;7.40;1.00;;;;;;5015902;28;20223;-80
2022/02/25 08:56:39;;;;;;;5.05;2.80;;;8.20;1.00;;;;;;5023541;28;20273;-80
2022/02/25 08:59:06;;;;;;;5.32;3.22;;;8.40;1.00;;;;;;5018866;28;20262;-79
2022/02/25 09:01:33;;;;;;;5.05;2.22;;;9.20;1.00;;;;;;5025669;28;20233;-78
2022/02/25 09:04:01;;;;;;;4.70;2.90;;;10.20;1.00;;;;;;5023882;28;20232;-79
2022/02/25 09:06:30;;;;;;;9.30;3.23;;;10.80;1.00;;;;;;5031321;28;20285;-79
2022/02/25 09:08:57;;;;;;;7.67;3.37;;;11.50;1.00;;;;;;5033982;28;20447;-80
2022/02/25 09:11:26;;;;;;;5.93;2.77;;;11.40;1.00;;;;;;5021509;28;20466;-80
2022/02/25 09:13:53;;;;;;;8.17;3.97;;;11.10;1.00;;;;;;5009969;28;20458;-81
2022/02/25 09:16:19;;;;;;;7.90;2.87;;;11.20;1.00;;;;;;5014552;28;20436;-79
2022/02/25 09:18:46;;;;;;;4.30;2.50;;;11.40;1.00;;;;;;5014689;28;21246;-79
2022/02/25 09:21:13;;;;;;;9.47;2.63;;;11.30;1.00;;;;;;5015641;28;20972;-80
2022/02/25 09:23:40;;;;;;;4.23;2.17;;;11.50;1.00;;;;;;5007068;28;20404;-80
2022/02/25 09:26:07;;;;;;;6.30;2.50;;;12.20;1.00;;;;;;5013117;28;20468;-80
2022/02/25 09:28:35;;;;;;;3.77;2.17;;;12.90;1.00;;;;;;5016339;28;22503;-81
2022/02/25 09:31:02;;;;;;;7.87;3.77;;;12.70;1.00;;;;;;5014325;28;20460;-80
2022/02/25 09:33:30;;;;;;;5.10;2.40;;;12.20;1.00;;;;;;5017177;28;20407;-80
2022/02/25 09:35:56;;;;;;;5.53;2.27;;;12.60;1.00;;;;;;5021087;28;20524;-80
2022/02/25 09:38:23;;;;;;;5.63;3.00;;;12.90;1.00;;;;;;5018572;28;20453;-81
2022/02/25 09:40:50;;;;;;;5.87;2.37;;;12.70;1.00;;;;;;5014942;28;20452;-79
2022/02/25 09:43:16;;;;;;;7.63;2.90;;;11.50;1.00;;;;;;5014871;28;20469;-81
2022/02/25 09:45:44;;;;;;;4.67;3.60;;;10.50;1.00;;;;;;5018119;28;20612;-80
2022/02/25 09:48:12;;;;;;;7.00;3.38;;;9.90;1.00;;;;;;5017185;28;20440;-81
2022/02/25 09:50:39;;;;;;;5.00;2.27;;;9.30;1.00;;;;;;5015122;28;20327;-80
2022/02/25 09:53:06;;;;;;;6.53;2.30;;;9.10;1.00;;;;;;5014818;28;20461;-79
2022/02/25 09:55:35;;;;;;;5.43;2.90;;;9.00;1.00;;;;;;5018699;28;20462;-82
2022/02/25 09:58:04;;;;;;;9.50;4.85;;;9.10;1.00;;;;;;5015026;28;20242;-79
2022/02/25 10:00:32;;;;;;;7.27;2.50;;;9.20;1.00;;;;;;5027840;28;20233;-80
2022/02/25 10:03:02;;;;;;;6.33;2.27;;;9.10;1.00;;;;;;5019321;28;20457;-79
2022/02/25 10:05:31;;;;;;;5.63;2.47;;;9.70;1.00;;;;;;5021620;28;20464;-81
2022/02/25 10:08:08;;;;;;;4.68;2.95;;;9.90;1.00;;;;;;5013496;28;21007;-79
2022/02/25 10:10:45;;;;;;;7.57;2.37;;;10.30;1.00;;;;;;5015237;28;20236;-79
2022/02/25 10:13:13;;;;;;;5.97;2.37;;;10.10;1.00;;;;;;5014982;28;21177;-80
2022/02/25 10:15:42;;;;;;;6.45;2.08;;;9.60;1.00;;;;;;5019302;28;20493;-81
2022/02/25 10:18:14;;;;;;;5.88;1.95;;;9.30;1.00;;;;;;5011229;28;20237;-80
2022/02/25 10:20:42;;;;;;;5.95;2.90;;;9.30;1.00;;;;;;5012157;28;20314;-80
2022/02/25 10:23:25;;;;;;;4.40;2.40;;;9.30;1.00;;;;;;5013841;28;20242;-81
2022/02/25 10:25:54;;;;;;;6.13;2.78;;;9.10;1.00;;;;;;5018238;28;20463;-81
2022/02/25 10:28:32;;;;;;;6.72;2.55;;;8.80;1.00;;;;;;5018753;28;20223;-81
2022/02/25 10:31:32;;;;;;;6.13;3.25;;;8.80;1.00;;;;;;5010729;28;20256;-81
2022/02/25 10:34:03;;;;;;;4.63;3.10;;;9.10;1.00;;;;;;4936489;28;20296;-82
2022/02/25 10:36:44;;;;;;;4.93;2.42;;;9.30;1.00;;;;;;5002845;28;20245;-79
2022/02/25 10:39:19;;;;;;;5.63;2.20;;;9.40;1.00;;;;;;5024877;28;20281;-78
2022/02/25 10:42:05;;;;;;;5.30;2.97;;;9.20;1.00;;;;;;5021074;28;20314;-79
2022/02/25 10:44:43;;;;;;;7.07;3.25;;;9.20;1.00;;;;;;5020111;28;20322;-80
2022/02/25 10:47:19;;;;;;;8.60;2.70;;;9.20;1.00;;;;;;5017372;28;20218;-79
2022/02/25 10:49:49;;;;;;;7.40;2.92;;;8.90;1.00;;;;;;5025703;28;20239;-77
2022/02/25 10:52:24;;;;;;;8.83;3.13;;;8.80;1.00;;;;;;5016562;28;20234;-78
2022/02/25 10:54:51;;;;;;;6.83;2.50;;;8.70;1.00;;;;;;5019138;28;20447;-79
2022/02/25 10:57:19;;;;;;;9.20;3.45;;;8.50;1.00;;;;;;5015757;28;20474;-80
2022/02/25 10:59:48;;;;;;;7.68;2.40;;;8.30;1.00;;;;;;5014460;28;20319;-80
2022/02/25 11:02:27;;;;;;;5.07;2.23;;;8.20;1.00;;;;;;5017467;28;20234;-78
2022/02/25 11:05:10;;;;;;;7.78;3.30;;;7.90;1.00;;;;;;5014164;28;21774;-80
2022/02/25 11:07:39;;;;;;;9.45;2.60;;;7.70;1.00;;;;;;5015300;28;20232;-79
2022/02/25 11:10:08;;;;;;;5.60;2.90;;;7.60;1.00;;;;;;5017754;28;20739;-80
2022/02/25 11:12:36;;;;;;;4.72;2.30;;;7.60;1.00;;;;;;5018944;28;20231;-79
2022/02/25 11:15:04;;;;;;;4.47;2.50;;;7.50;1.00;;;;;;5011886;28;20234;-80
2022/02/25 11:17:31;;;;;;;7.18;2.58;;;7.40;1.00;;;;;;5016983;28;20235;-81
2022/02/25 11:20:00;;;;;;;6.45;2.85;;;7.40;1.00;;;;;;5017497;28;20959;-80
2022/02/25 11:22:29;;;;;;;6.05;2.60;;;7.40;1.00;;;;;;5026565;28;20237;-79
2022/02/25 11:24:58;;;;;;;4.25;2.50;;;7.50;1.00;;;;;;5032284;28;20194;-82
2022/02/25 11:27:25;;;;;;;6.10;2.25;;;7.50;1.00;;;;;;5024055;28;20230;-80
2022/02/25 11:30:01;;;;;;;4.90;2.20;;;7.70;1.00;;;;;;5015006;28;20234;-82
2022/02/25 11:32:34;;;;;;;4.25;2.60;;;8.00;1.00;;;;;;5019494;28;21112;-80
2022/02/25 11:35:00;;;;;;;8.80;2.75;;;8.20;1.00;;;;;;5014312;28;21416;-81
2022/02/25 11:37:50;;;;;;;5.40;2.63;;;8.30;1.00;;;;;;5026789;28;20282;-81
2022/02/25 11:40:17;;;;;;;4.85;2.70;;;8.40;1.00;;;;;;5020168;28;21014;-82
2022/02/25 11:42:48;;;;;;;6.70;2.60;;;8.30;1.00;;;;;;5022093;28;20247;-81
2022/02/25 11:45:24;;;;;;;5.82;2.50;;;8.00;1.00;;;;;;5032618;28;20359;-81
2022/02/25 11:47:54;;;;;;;3.53;2.63;;;7.80;1.00;;;;;;5031386;28;20259;-81
2022/02/25 11:50:32;;;;;;;4.20;2.70;;;7.90;1.00;;;;;;5019251;28;20237;-81
2022/02/25 11:53:01;;;;;;;4.95;2.67;;;7.70;1.00;;;;;;5016307;28;20234;-81
2022/02/25 11:55:33;;;;;;;3.72;2.90;;;7.60;1.00;;;;;;5020046;28;20304;-81
2022/02/25 11:58:34;;;;;;;5.18;2.97;;;7.70;1.00;;;;;;5019570;28;20741;-82
2022/02/25 12:01:07;;;;;;;4.38;2.50;;;7.70;1.00;;;;;;5015753;28;20236;-79
2022/02/25 12:03:35;;;;;;;5.85;3.30;;;7.50;1.00;;;;;;5016164;28;20231;-79
2022/02/25 12:06:02;;;;;;;4.13;2.72;;;7.40;1.00;;;;;;5019181;28;20228;-79
2022/02/25 12:08:32;;;;;;;6.55;3.08;;;7.30;1.00;;;;;;5017511;28;20226;-79
2022/02/25 12:11:18;;;;;;;5.97;3.15;;;7.30;1.00;;;;;;5014033;28;20289;-78
2022/02/25 12:13:47;;;;;;;7.40;3.92;;;7.30;1.00;;;;;;5017845;28;20729;-80
2022/02/25 12:16:29;;;;;;;5.22;3.75;;;7.30;1.00;;;;;;5016043;28;20227;-80
2022/02/25 12:19:07;;;;;;;4.15;3.30;;;7.30;1.00;;;;;;5018040;28;20233;-79
2022/02/25 12:21:41;;;;;;;8.93;4.05;;;7.40;1.00;;;;;;5017141;28;20222;-79
2022/02/25 12:24:14;;;;;;;6.03;3.50;;;7.50;1.00;;;;;;5017065;28;20222;-80
2022/02/25 12:26:41;;;;;;;5.82;3.50;;;7.50;1.00;;;;;;5019321;28;20226;-79
2022/02/25 12:29:16;;;;;;;7.03;4.25;;;7.50;1.00;;;;;;5015831;28;20718;-79
2022/02/25 12:31:45;;;;;;;7.03;3.40;;;7.50;1.00;;;;;;5014660;28;20226;-79
2022/02/25 12:34:20;;;;;;;5.82;3.65;;;7.40;1.00;;;;;;5016360;28;20250;-79
2022/02/25 12:36:48;;;;;;;6.72;3.63;;;7.40;1.00;;;;;;5024235;28;20233;-78
2022/02/25 12:39:24;;;;;;;7.03;3.50;;;7.40;1.00;;;;;;5035135;28;20283;-78
2022/02/25 12:41:55;;;;;;;12.82;3.50;;;7.20;1.00;;;;;;5038121;28;20276;-78
2022/02/25 12:44:24;;;;;;;7.63;3.90;;;7.20;1.00;;;;;;5031069;28;20222;-79
2022/02/25 12:46:54;;;;;;;5.85;3.65;;;7.10;1.00;;;;;;5033804;28;20234;-78
2022/02/25 12:49:22;;;;;;;9.38;4.78;;;7.00;1.00;;;;;;5029824;28;21128;-78
2022/02/25 12:51:52;;;;;;;9.48;3.78;;;7.00;1.00;;;;;;5036952;28;20223;-78
2022/02/25 12:54:23;;;;;;;6.22;4.07;;;7.00;1.00;;;;;;5029435;28;20233;-80
2022/02/25 12:56:52;;;;;;;7.97;4.47;;;7.00;1.00;;;;;;5011393;28;20233;-77
2022/02/25 12:59:20;;;;;;;6.18;3.58;;;6.90;1.00;;;;;;5010659;28;20230;-80
2022/02/25 13:01:49;;;;;;;7.32;4.30;;;6.90;1.00;;;;;;5017260;28;20249;-80
2022/02/25 13:04:19;;;;;;;6.65;3.97;;;6.90;1.00;;;;;;5016358;28;20219;-80
2022/02/25 13:06:47;;;;;;;7.22;3.90;;;6.90;1.00;;;;;;5019113;28;20227;-78
2022/02/25 13:09:18;;;;;;;9.57;4.90;;;6.80;1.00;;;;;;5018816;28;20223;-80
2022/02/25 13:11:50;;;;;;;6.00;3.60;;;6.70;1.00;;;;;;5017001;28;20222;-81
2022/02/25 13:14:18;;;;;;;6.72;4.07;;;6.50;1.00;;;;;;5019933;28;20233;-80
2022/02/25 13:17:04;;;;;;;5.83;4.10;;;6.40;1.00;;;;;;5024011;28;20718;-81
2022/02/25 13:19:36;;;;;;;8.23;4.00;;;6.40;1.00;;;;;;5019094;28;20436;-81
2022/02/25 13:22:09;;;;;;;12.77;4.30;;;6.50;1.00;;;;;;5014378;28;20287;-80